Appingedam, Netherlands
Current Conditions -  °F | °C
As of 2:55 PM on Wednesday 26 Nov 2014 (Local Time) from EHGG Reporting Station
Clear Clear  
Wind Chill: 34°   Ceiling: Unl
Heat Index: 41°   Visibility: 5mi
Dew Point: 36°   Wind: 12mph
Humidity: 81%   Direction: 110°ESE
Pressure: 29.97"   Gusts: NA
Location:  53.32°N, 6.86°E
Report Text: EHGG 261355Z AUTO 11010KT 080V150 8000 NCD 05/02 Q1015 NOSIG
Loading
Personal Weather Stations






























Interactive Weather Map New forecast layout! Learn more

10-Day Weather Forecast

Advertisements
Track Severe Weather on mobile